Aviation Digital Data Service (ADDS)

Output produced by METARs form (1010 UTC 18 January 2017)
found at http://aviationweather.gov/adds/metars/
 
KRUT 180530Z 1806/1906 14012G21KT 6SM -SN BR SCT015 OVC040 
     TEMPO 1806/1809 2SM -SN BR OVC015 
     FM181600 14007KT P6SM VCSH OVC025 
     FM190000 15006KT P6SM OVC025